createdAt,value
2022-11-28T00:00:12.185Z,310.00
2022-11-28T00:05:08.371Z,310.00
2022-11-28T00:10:07.595Z,310.00
2022-11-28T00:15:06.778Z,310.00
2022-11-28T00:20:05.962Z,310.00
2022-11-28T00:25:08.235Z,310.00
2022-11-28T00:30:05.387Z,310.00
2022-11-28T00:35:03.565Z,310.00
2022-11-28T00:40:02.749Z,310.00
2022-11-28T00:45:01.938Z,310.00
2022-11-28T00:50:01.111Z,310.00
2022-11-28T00:55:00.315Z,310.00
2022-11-28T01:00:00.495Z,310.00
2022-11-28T01:04:58.675Z,310.00
2022-11-28T01:09:58.970Z,342.30
2022-11-28T01:14:57.289Z,342.30
2022-11-28T01:19:58.627Z,342.30
2022-11-28T01:24:55.937Z,342.30
2022-11-28T01:29:55.259Z,422.90
2022-11-28T01:34:54.537Z,419.70
2022-11-28T01:39:52.821Z,421.30
2022-11-28T01:44:53.099Z,381.70
2022-11-28T01:49:53.382Z,438.90
2022-11-28T01:54:52.664Z,403.80
2022-11-28T01:59:52.950Z,414.90
2022-11-28T02:04:50.254Z,403.70
2022-11-28T02:09:49.564Z,431.00
2022-11-28T02:14:49.878Z,422.80
2022-11-28T02:19:48.186Z,431.90
2022-11-28T02:24:48.514Z,401.10
2022-11-28T02:29:46.821Z,443.30
2022-11-28T02:34:47.439Z,419.40
2022-11-28T02:39:46.378Z,418.50
2022-11-28T02:44:45.068Z,397.70
2022-11-28T02:49:46.983Z,435.50
2022-11-28T02:54:43.300Z,412.90
2022-11-28T02:59:42.376Z,428.90
2022-11-28T03:04:42.868Z,423.10
2022-11-28T03:09:43.007Z,420.10
2022-11-28T03:14:40.554Z,429.40
2022-11-28T03:19:42.497Z,411.30
2022-11-28T03:24:39.911Z,407.80
2022-11-28T03:29:37.899Z,422.00
2022-11-28T03:34:37.217Z,401.00
2022-11-28T03:39:36.502Z,410.70
2022-11-28T03:44:36.807Z,402.90
2022-11-28T03:49:36.078Z,421.10
2022-11-28T03:54:35.385Z,402.40
2022-11-28T03:59:34.702Z,435.70
2022-11-28T04:04:33.007Z,402.90
2022-11-28T04:09:34.327Z,410.50
2022-11-28T04:14:33.630Z,413.10
2022-11-28T04:19:32.924Z,435.10
2022-11-28T04:24:30.206Z,423.80
2022-11-28T04:29:29.517Z,297.50
2022-11-28T04:34:28.816Z,290.10
2022-11-28T04:39:29.111Z,412.60
2022-11-28T04:44:28.379Z,404.00
2022-11-28T04:49:26.668Z,402.10
2022-11-28T04:54:26.993Z,415.70
2022-11-28T04:59:27.291Z,379.70
2022-11-28T05:04:26.589Z,409.20
2022-11-28T05:09:24.877Z,409.00
2022-11-28T05:14:23.221Z,433.80
2022-11-28T05:19:22.489Z,429.10
2022-11-28T05:24:22.547Z,387.20
2022-11-28T05:29:20.933Z,403.30
2022-11-28T05:34:20.222Z,422.90
2022-11-28T05:39:21.533Z,426.40
2022-11-28T05:44:22.828Z,445.60
2022-11-28T05:49:18.933Z,443.90
2022-11-28T05:54:19.250Z,444.60
2022-11-28T05:59:16.526Z,448.10
2022-11-28T06:04:17.854Z,442.10
2022-11-28T06:09:14.977Z,443.60
2022-11-28T06:14:15.332Z,429.10
2022-11-28T06:19:13.538Z,430.30
2022-11-28T06:24:12.627Z,417.30
2022-11-28T06:29:11.912Z,414.80
2022-11-28T06:34:13.247Z,419.70
2022-11-28T06:39:10.531Z,425.00
2022-11-28T06:44:09.842Z,412.00
2022-11-28T06:49:09.109Z,430.30
2022-11-28T06:54:08.432Z,408.80
2022-11-28T06:59:07.725Z,419.20
2022-11-28T07:04:08.057Z,422.40
2022-11-28T07:09:07.327Z,412.80
2022-11-28T07:14:05.631Z,404.40
2022-11-28T07:19:04.930Z,419.60
2022-11-28T07:24:04.260Z,407.10
2022-11-28T07:29:02.581Z,423.40
2022-11-28T07:34:02.886Z,449.40
2022-11-28T07:39:02.226Z,415.20
2022-11-28T07:44:01.547Z,369.90
2022-11-28T07:49:00.812Z,391.40
2022-11-28T07:54:00.121Z,428.90
2022-11-28T07:59:03.164Z,391.50
2022-11-28T08:03:58.740Z,413.60
2022-11-28T08:08:57.902Z,401.00
2022-11-28T08:13:58.214Z,403.40
2022-11-28T08:18:56.364Z,429.40
2022-11-28T08:23:55.665Z,426.40
2022-11-28T08:28:54.966Z,410.80
2022-11-28T08:33:55.271Z,405.20
2022-11-28T08:39:03.908Z,429.70
2022-11-28T08:43:53.715Z,389.90
2022-11-28T08:48:52.013Z,416.90
2022-11-28T08:53:54.949Z,403.60
2022-11-28T08:58:50.534Z,428.90
2022-11-28T09:03:50.929Z,381.40
2022-11-28T09:08:50.047Z,397.40
2022-11-28T09:13:48.381Z,400.30
2022-11-28T09:18:47.697Z,420.60
2022-11-28T09:23:47.866Z,406.60
2022-11-28T09:28:46.020Z,403.80
2022-11-28T09:33:45.158Z,429.60
2022-11-28T09:38:46.483Z,391.10
2022-11-28T09:43:44.800Z,424.80
2022-11-28T09:48:44.111Z,431.60
2022-11-28T09:53:42.424Z,423.90
2022-11-28T09:58:41.740Z,408.50
2022-11-28T10:03:40.907Z,419.10
2022-11-28T10:08:41.052Z,454.80
2022-11-28T10:14:06.087Z,436.60
2022-11-28T10:18:39.518Z,409.70
2022-11-28T10:23:37.805Z,427.20
2022-11-28T10:28:41.097Z,428.50
2022-11-28T10:33:36.396Z,427.20
2022-11-28T10:38:34.891Z,436.00
2022-11-28T10:43:35.034Z,416.90
2022-11-28T10:48:41.540Z,431.30
2022-11-28T10:53:33.342Z,418.80
2022-11-28T10:58:32.483Z,382.20
2022-11-28T11:03:31.871Z,411.80
2022-11-28T11:08:32.149Z,444.10
2022-11-28T11:13:30.293Z,409.00
2022-11-28T11:18:30.477Z,416.40
2022-11-28T11:23:29.460Z,381.10
2022-11-28T11:28:28.778Z,397.90
2022-11-28T11:33:27.624Z,383.30
2022-11-28T11:38:27.348Z,418.90
2022-11-28T11:43:25.749Z,415.00
2022-11-28T11:48:24.901Z,396.90
2022-11-28T11:53:24.387Z,443.40
2022-11-28T11:58:23.535Z,420.90
2022-11-28T12:03:23.039Z,401.80
2022-11-28T12:08:23.057Z,423.60
2022-11-28T12:13:23.381Z,426.80
2022-11-28T12:18:22.691Z,411.40
2022-11-28T12:23:20.010Z,407.50
2022-11-28T12:28:20.092Z,408.20
2022-11-28T12:33:19.390Z,424.80
2022-11-28T12:38:17.715Z,429.00
2022-11-28T12:43:16.876Z,429.00
2022-11-28T12:48:15.973Z,429.00
2022-11-28T12:53:16.358Z,429.00
2022-11-28T12:58:15.642Z,384.60
2022-11-28T13:03:14.023Z,443.00
2022-11-28T13:08:13.142Z,391.20
2022-11-28T13:13:13.490Z,404.60
2022-11-28T13:18:11.591Z,419.10
2022-11-28T13:23:10.940Z,408.40
2022-11-28T13:28:10.331Z,422.50
2022-11-28T13:33:09.460Z,416.20
2022-11-28T13:43:08.757Z,401.80
2022-11-28T13:48:07.156Z,424.10
2022-11-28T13:53:06.474Z,413.60
2022-11-28T13:58:05.829Z,393.10
2022-11-28T14:03:05.118Z,405.80
2022-11-28T14:08:04.544Z,429.50
2022-11-28T14:13:04.752Z,418.60
2022-11-28T14:18:03.048Z,426.70
2022-11-28T14:23:02.361Z,424.10
2022-11-28T14:28:02.699Z,420.30
2022-11-28T14:33:02.012Z,412.60
2022-11-28T14:38:00.336Z,412.90
2022-11-28T14:43:00.761Z,426.90
2022-11-28T14:47:58.642Z,405.90
2022-11-28T14:52:58.785Z,421.90
2022-11-28T14:57:57.935Z,400.10
2022-11-28T15:02:57.185Z,437.60
2022-11-28T15:07:56.407Z,420.60
2022-11-28T15:12:54.494Z,414.00
2022-11-28T15:17:54.787Z,408.20
2022-11-28T15:22:53.131Z,433.30
2022-11-28T15:27:51.250Z,394.20
2022-11-28T15:32:55.686Z,383.10
2022-11-28T15:37:50.807Z,364.50
2022-11-28T15:42:50.137Z,375.80
2022-11-28T15:47:49.451Z,417.10
2022-11-28T15:52:48.746Z,402.20
2022-11-28T15:57:49.048Z,407.90
2022-11-28T16:02:47.368Z,412.80
2022-11-28T16:07:48.732Z,397.90
2022-11-28T16:12:46.873Z,403.70
2022-11-28T16:17:45.240Z,398.10
2022-11-28T16:22:44.404Z,403.10
2022-11-28T16:27:44.545Z,404.70
2022-11-28T16:32:43.868Z,411.20
2022-11-28T16:37:44.460Z,416.90
2022-11-28T16:42:42.766Z,411.20
2022-11-28T16:47:41.935Z,418.80
2022-11-28T16:52:42.298Z,394.80
2022-11-28T16:57:39.233Z,401.60
2022-11-28T17:02:38.584Z,414.90
2022-11-28T17:07:38.762Z,417.30
2022-11-28T17:12:37.077Z,415.70
2022-11-28T17:17:36.378Z,390.90
2022-11-28T17:22:40.525Z,398.40
2022-11-28T17:27:34.936Z,429.90
2022-11-28T17:32:34.055Z,412.90
2022-11-28T17:37:35.548Z,393.80
2022-11-28T17:42:33.057Z,406.60
2022-11-28T17:47:43.057Z,429.00
2022-11-28T17:52:32.243Z,427.40
2022-11-28T17:57:31.654Z,390.80
2022-11-28T18:02:31.027Z,413.40
2022-11-28T18:07:29.852Z,394.90
2022-11-28T18:12:28.312Z,392.80
2022-11-28T18:17:28.538Z,412.20
2022-11-28T18:22:26.508Z,412.40
2022-11-28T18:27:25.949Z,419.00
2022-11-28T18:32:26.469Z,397.20
2022-11-28T18:37:25.684Z,399.40
2022-11-28T18:42:24.902Z,427.80
2022-11-28T18:47:24.058Z,415.00
2022-11-28T18:52:20.821Z,410.00
2022-11-28T18:57:22.456Z,393.90
2022-11-28T19:02:21.831Z,418.40
2022-11-28T19:07:19.681Z,397.70
2022-11-28T19:12:19.174Z,411.40
2022-11-28T19:17:17.964Z,390.10
2022-11-28T19:22:19.695Z,404.80
2022-11-28T19:27:16.841Z,405.60
2022-11-28T19:32:17.650Z,409.60
2022-11-28T19:37:14.874Z,413.70
2022-11-28T19:42:17.026Z,357.30
2022-11-28T19:47:15.501Z,402.10
2022-11-28T19:52:12.813Z,423.30
2022-11-28T19:57:12.666Z,421.60
2022-11-28T20:02:13.426Z,409.90
2022-11-28T20:07:11.579Z,411.10
2022-11-28T20:12:09.521Z,409.70
2022-11-28T20:17:10.224Z,391.30
2022-11-28T20:22:08.364Z,421.80
2022-11-28T20:27:08.527Z,410.90
2022-11-28T20:32:06.671Z,386.20
2022-11-28T20:37:05.890Z,422.50
2022-11-28T20:42:04.731Z,439.40
2022-11-28T20:47:05.933Z,407.00
2022-11-28T20:52:03.539Z,409.20
2022-11-28T20:57:20.881Z,395.60
2022-11-28T21:02:07.382Z,417.00
2022-11-28T21:07:01.143Z,452.80
2022-11-28T21:12:00.224Z,453.40
2022-11-28T21:16:58.688Z,445.40
2022-11-28T21:21:58.759Z,430.00
2022-11-28T21:26:57.720Z,426.80
2022-11-28T21:31:57.373Z,426.80
2022-11-28T21:36:56.333Z,426.80
2022-11-28T21:41:56.661Z,426.80
2022-11-28T21:46:55.939Z,426.80
2022-11-28T21:51:55.220Z,426.80
2022-11-28T21:56:53.488Z,426.80
2022-11-28T22:01:53.828Z,426.80
2022-11-28T22:06:51.918Z,426.80
2022-11-28T22:11:52.207Z,426.80
2022-11-28T22:16:50.520Z,426.80
2022-11-28T22:21:51.784Z,426.80
2022-11-28T22:26:49.073Z,426.80
2022-11-28T22:31:48.413Z,426.80
2022-11-28T22:36:47.551Z,426.80
2022-11-28T22:41:46.873Z,426.80
2022-11-28T22:46:47.191Z,426.80
2022-11-28T22:51:45.507Z,426.80
2022-11-28T22:56:44.631Z,426.80
2022-11-28T23:01:44.024Z,426.80
2022-11-28T23:06:44.222Z,426.80
2022-11-28T23:11:42.563Z,426.80
2022-11-28T23:16:41.717Z,426.80
2022-11-28T23:21:41.828Z,426.80
2022-11-28T23:26:40.982Z,426.80
2022-11-28T23:31:39.209Z,426.80
2022-11-28T23:36:42.642Z,426.80
2022-11-28T23:41:38.592Z,426.80
2022-11-28T23:46:37.782Z,426.80
2022-11-28T23:51:35.957Z,426.80
2022-11-28T23:56:37.137Z,426.80
